createdAt,value
2019-05-13T00:02:37.237Z,94.70
2019-05-13T00:08:38.686Z,95.20
2019-05-13T00:14:40.196Z,95.40
2019-05-13T00:20:44.114Z,95.40
2019-05-13T00:26:45.487Z,95.30
2019-05-13T00:32:47.154Z,95.60
2019-05-13T00:38:48.983Z,95.60
2019-05-13T00:44:50.505Z,95.40
2019-05-13T00:50:54.256Z,95.40
2019-05-13T00:56:55.618Z,95.70
2019-05-13T01:02:57.107Z,95.90
2019-05-13T01:08:58.628Z,96.10
2019-05-13T01:15:08.981Z,96.20
2019-05-13T01:21:13.252Z,96.70
2019-05-13T01:27:14.957Z,97.00
2019-05-13T01:33:16.602Z,97.10
2019-05-13T01:39:18.218Z,97.60
2019-05-13T01:45:19.769Z,97.90
2019-05-13T01:51:23.860Z,98.10
2019-05-13T01:57:25.130Z,97.40
2019-05-13T02:03:28.562Z,97.10
2019-05-13T02:09:30.749Z,97.10
2019-05-13T02:15:33.773Z,96.80
2019-05-13T02:21:35.327Z,97.10
2019-05-13T02:27:36.879Z,97.10
2019-05-13T02:33:38.596Z,97.80
2019-05-13T02:39:42.760Z,98.00
2019-05-13T02:45:44.478Z,97.90
2019-05-13T02:51:46.110Z,97.80
2019-05-13T02:57:47.663Z,97.60
2019-05-13T03:03:52.892Z,97.60
2019-05-13T03:09:54.382Z,97.70
2019-05-13T03:16:06.537Z,97.90
2019-05-13T03:22:08.581Z,97.90
2019-05-13T03:28:13.214Z,97.90
2019-05-13T03:34:15.849Z,97.90
2019-05-13T03:40:16.765Z,98.00
2019-05-13T03:46:22.706Z,98.00
2019-05-13T03:52:24.700Z,98.30
2019-05-13T03:58:26.797Z,98.60
2019-05-13T04:04:28.415Z,98.70
2019-05-13T04:10:33.137Z,99.10
2019-05-13T04:16:33.779Z,99.20
2019-05-13T04:22:35.434Z,98.90
2019-05-13T04:28:37.019Z,98.30
2019-05-13T04:34:41.523Z,97.90
2019-05-13T04:40:42.629Z,97.70
2019-05-13T04:46:45.447Z,97.30
2019-05-13T04:52:52.287Z,97.30
2019-05-13T04:58:53.011Z,96.20
2019-05-13T05:05:04.474Z,95.00
2019-05-13T05:11:21.969Z,94.90
2019-05-13T05:17:42.959Z,94.30
2019-05-13T05:23:51.556Z,94.90
2019-05-13T05:30:06.123Z,94.90
2019-05-13T05:36:23.125Z,95.50
2019-05-13T05:42:27.990Z,95.70
2019-05-13T05:48:33.109Z,95.20
2019-05-13T05:54:36.897Z,92.00
2019-05-13T06:00:41.521Z,90.00
2019-05-13T06:06:45.129Z,87.60
2019-05-13T06:12:47.215Z,88.50
2019-05-13T06:18:48.753Z,83.80
2019-05-13T06:24:52.176Z,80.10
2019-05-13T06:30:53.572Z,85.30
2019-05-13T06:36:55.264Z,87.60
2019-05-13T06:42:56.739Z,88.10
2019-05-13T06:49:02.691Z,88.20
2019-05-13T06:55:07.286Z,87.80
2019-05-13T07:01:11.393Z,87.60
2019-05-13T07:07:17.301Z,84.80
2019-05-13T07:13:18.263Z,82.00
2019-05-13T07:19:19.895Z,82.20
2019-05-13T07:25:22.271Z,80.80
2019-05-13T07:31:23.799Z,79.20
2019-05-13T07:37:25.606Z,79.40
2019-05-13T07:43:27.146Z,78.40
2019-05-13T07:49:28.637Z,75.80
2019-05-13T07:55:31.599Z,76.00
2019-05-13T08:01:33.176Z,74.40
2019-05-13T08:07:34.633Z,76.70
2019-05-13T08:13:36.463Z,75.10
2019-05-13T08:19:41.384Z,75.10
2019-05-13T08:25:42.950Z,71.30
2019-05-13T08:31:44.667Z,71.80
2019-05-13T08:37:46.206Z,68.30
2019-05-13T08:43:47.753Z,66.80
2019-05-13T08:49:51.843Z,65.30
2019-05-13T08:55:52.611Z,62.80
2019-05-13T09:01:54.205Z,64.40
2019-05-13T09:07:56.224Z,63.50
2019-05-13T09:13:58.001Z,60.80
2019-05-13T09:19:59.671Z,60.30
2019-05-13T09:26:02.555Z,59.10
2019-05-13T09:32:04.509Z,61.00
2019-05-13T09:38:07.379Z,60.50
2019-05-13T09:44:09.065Z,58.90
2019-05-13T09:50:28.049Z,59.40
2019-05-13T09:56:14.410Z,58.80
2019-05-13T10:02:18.365Z,59.00
2019-05-13T10:08:21.927Z,51.80
2019-05-13T10:14:23.489Z,51.20
2019-05-13T10:20:44.064Z,47.50
2019-05-13T10:26:45.917Z,48.30
2019-05-13T10:32:47.477Z,49.90
2019-05-13T10:38:49.067Z,46.00
2019-05-13T10:44:52.209Z,46.10
2019-05-13T10:50:53.979Z,46.50
2019-05-13T10:56:59.514Z,46.40
2019-05-13T11:02:59.098Z,45.00
2019-05-13T11:09:02.012Z,46.90
2019-05-13T11:15:05.837Z,45.70
2019-05-13T11:21:07.347Z,45.10
2019-05-13T11:27:11.791Z,42.60
2019-05-13T11:33:12.275Z,41.40
2019-05-13T11:39:17.553Z,42.80
2019-05-13T11:45:22.286Z,40.30
2019-05-13T11:51:26.086Z,41.70
2019-05-13T11:57:31.567Z,40.00
2019-05-13T12:03:33.283Z,38.00
2019-05-13T12:09:34.748Z,39.60
2019-05-13T12:15:45.899Z,42.80
2019-05-13T12:21:43.203Z,38.70
2019-05-13T12:27:42.970Z,40.30
2019-05-13T12:33:44.577Z,40.80
2019-05-13T12:39:46.135Z,38.00
2019-05-13T12:45:47.782Z,39.00
2019-05-13T12:51:51.780Z,39.70
2019-05-13T12:57:53.540Z,43.40
2019-05-13T13:03:55.045Z,40.70
2019-05-13T13:09:56.737Z,40.60
2019-05-13T13:16:03.593Z,40.30
2019-05-13T13:22:07.907Z,40.20
2019-05-13T13:28:12.071Z,38.30
2019-05-13T13:34:17.303Z,41.80
2019-05-13T13:40:20.263Z,38.10
2019-05-13T13:52:22.677Z,35.00
2019-05-13T13:58:25.677Z,36.70
2019-05-13T14:04:27.423Z,40.00
2019-05-13T14:06:58.778Z,38.90
2019-05-13T14:10:31.861Z,37.90
2019-05-13T14:16:35.165Z,37.50
2019-05-13T14:22:37.028Z,38.20
2019-05-13T14:28:38.539Z,35.90
2019-05-13T14:34:42.055Z,37.90
2019-05-13T14:40:46.638Z,36.00
2019-05-13T14:46:48.353Z,34.80
2019-05-13T14:52:52.253Z,35.70
2019-05-13T14:58:53.299Z,36.20
2019-05-13T15:04:54.786Z,35.30
2019-05-13T15:10:56.237Z,34.10
2019-05-13T15:17:03.057Z,34.50
2019-05-13T15:23:01.211Z,32.10
2019-05-13T15:29:05.110Z,31.60
2019-05-13T15:35:09.851Z,30.80
2019-05-13T15:41:14.657Z,33.00
2019-05-13T15:47:22.868Z,32.20
2019-05-13T15:53:17.165Z,29.40
2019-05-13T15:59:18.921Z,30.80
2019-05-13T16:05:21.073Z,31.30
2019-05-13T16:11:22.577Z,35.70
2019-05-13T16:17:37.956Z,34.30
2019-05-13T16:23:32.017Z,31.80
2019-05-13T16:29:32.868Z,31.10
2019-05-13T16:35:34.735Z,30.80
2019-05-13T16:41:37.958Z,31.00
2019-05-13T16:47:56.178Z,33.60
2019-05-13T16:53:43.774Z,32.40
2019-05-13T16:59:46.230Z,32.30
2019-05-13T17:05:47.714Z,33.60
2019-05-13T17:11:49.295Z,33.00
2019-05-13T17:17:51.472Z,33.70
2019-05-13T17:23:53.197Z,33.00
2019-05-13T17:29:54.825Z,31.70
2019-05-13T17:35:56.624Z,32.50
2019-05-13T17:42:01.447Z,33.10
2019-05-13T17:48:03.153Z,33.10
2019-05-13T17:54:04.814Z,33.10
2019-05-13T18:00:07.334Z,30.40
2019-05-13T18:06:08.822Z,32.00
2019-05-13T18:12:11.526Z,33.10
2019-05-13T18:18:13.802Z,36.50
2019-05-13T18:24:16.181Z,42.00
2019-05-13T18:30:18.094Z,45.50
2019-05-13T18:36:22.122Z,46.30
2019-05-13T18:42:23.246Z,48.50
2019-05-13T18:48:26.193Z,48.90
2019-05-13T18:54:31.357Z,49.80
2019-05-13T19:00:32.190Z,51.70
2019-05-13T19:06:33.908Z,53.50
2019-05-13T19:12:35.545Z,55.80
2019-05-13T19:18:37.163Z,58.60
2019-05-13T19:24:38.671Z,60.00
2019-05-13T19:30:41.201Z,63.70
2019-05-13T19:36:47.497Z,66.10
2019-05-13T19:42:51.066Z,66.00
2019-05-13T19:48:55.662Z,64.40
2019-05-13T19:54:57.311Z,63.10
2019-05-13T20:00:58.784Z,63.00
2019-05-13T20:07:00.434Z,62.70
2019-05-13T20:13:01.976Z,63.30
2019-05-13T20:19:03.831Z,64.00
2019-05-13T20:25:10.191Z,65.00
2019-05-13T20:31:11.194Z,64.90
2019-05-13T20:37:12.642Z,65.60
2019-05-13T20:43:14.154Z,65.00
2019-05-13T20:49:15.647Z,65.10
2019-05-13T20:55:17.203Z,66.80
2019-05-13T21:01:20.652Z,68.20
2019-05-13T21:07:22.024Z,67.60
2019-05-13T21:13:23.566Z,66.30
2019-05-13T21:19:25.144Z,66.30
2019-05-13T21:25:26.994Z,65.40
2019-05-13T21:31:29.737Z,66.20
2019-05-13T21:37:31.187Z,69.20
2019-05-13T21:43:37.243Z,71.80
2019-05-13T21:49:38.711Z,74.30
2019-05-13T21:55:41.484Z,76.00
2019-05-13T22:01:43.195Z,78.00
2019-05-13T22:07:44.793Z,77.60
2019-05-13T22:13:51.247Z,79.50
2019-05-13T22:19:55.691Z,81.40
2019-05-13T22:25:57.298Z,84.20
2019-05-13T22:32:02.080Z,86.00
2019-05-13T22:38:04.233Z,87.90
2019-05-13T22:44:05.929Z,87.90
2019-05-13T22:50:07.643Z,88.80
2019-05-13T22:56:10.280Z,90.00
2019-05-13T23:02:11.754Z,90.90
2019-05-13T23:08:13.419Z,91.50
2019-05-13T23:14:15.024Z,91.80
2019-05-13T23:20:16.697Z,92.00
2019-05-13T23:26:21.185Z,92.30
2019-05-13T23:32:22.670Z,92.70
2019-05-13T23:38:24.086Z,92.90
2019-05-13T23:44:28.260Z,93.20
2019-05-13T23:50:28.920Z,93.00
2019-05-13T23:56:31.113Z,93.00
